ADDS METAR Data INFO
IDs: Format: Raw Decoded Include TAF

Data at: 0244 UTC 17 Jan 2018

METAR for:KVVG (The Villages, FL, US)
Text:KVVG 170230Z AUTO 00000KT 10SM 12/11 A3022 RMK A01
Temperature: 12.0°C ( 54°F)
Dewpoint: 11.0°C ( 52°F) [RH = 94%]
Pressure (altimeter):30.22 inches Hg (1023.5 mb)
Winds:calm
Visibility:10 or more sm (16+ km)
QC Flag:automated observation with no human augmentation